sensor_id;sensor_type;location;lat;lon;timestamp;P1;durP1;ratioP1;P2;durP2;ratioP2
21862;SDS011;11096;51.338;12.524;2023-02-03T00:01:32;4.25;;;1.80;;
21862;SDS011;11096;51.338;12.524;2023-02-03T00:03:57;5.20;;;2.15;;
21862;SDS011;11096;51.338;12.524;2023-02-03T00:06:22;6.03;;;1.95;;
21862;SDS011;11096;51.338;12.524;2023-02-03T00:08:48;4.82;;;2.40;;
21862;SDS011;11096;51.338;12.524;2023-02-03T00:11:13;7.10;;;1.98;;
21862;SDS011;11096;51.338;12.524;2023-02-03T00:13:38;2.85;;;1.88;;
21862;SDS011;11096;51.338;12.524;2023-02-03T00:16:04;4.15;;;2.08;;
21862;SDS011;11096;51.338;12.524;2023-02-03T00:18:31;5.38;;;1.83;;
21862;SDS011;11096;51.338;12.524;2023-02-03T00:20:56;5.53;;;2.05;;
21862;SDS011;11096;51.338;12.524;2023-02-03T00:23:21;2.67;;;1.50;;
21862;SDS011;11096;51.338;12.524;2023-02-03T00:25:46;6.75;;;2.22;;
21862;SDS011;11096;51.338;12.524;2023-02-03T00:28:12;4.45;;;1.60;;
21862;SDS011;11096;51.338;12.524;2023-02-03T00:30:37;2.80;;;1.60;;
21862;SDS011;11096;51.338;12.524;2023-02-03T00:33:02;3.55;;;1.30;;
21862;SDS011;11096;51.338;12.524;2023-02-03T00:35:28;5.85;;;1.98;;
21862;SDS011;11096;51.338;12.524;2023-02-03T00:37:54;1.52;;;1.10;;
21862;SDS011;11096;51.338;12.524;2023-02-03T00:40:19;3.42;;;0.95;;
21862;SDS011;11096;51.338;12.524;2023-02-03T00:42:45;6.60;;;1.38;;
21862;SDS011;11096;51.338;12.524;2023-02-03T00:45:10;1.20;;;1.00;;
21862;SDS011;11096;51.338;12.524;2023-02-03T00:47:36;4.30;;;1.10;;
21862;SDS011;11096;51.338;12.524;2023-02-03T00:50:01;4.30;;;1.10;;
21862;SDS011;11096;51.338;12.524;2023-02-03T00:52:26;7.00;;;1.23;;
21862;SDS011;11096;51.338;12.524;2023-02-03T00:54:51;4.45;;;1.38;;
21862;SDS011;11096;51.338;12.524;2023-02-03T00:57:17;2.63;;;1.50;;
21862;SDS011;11096;51.338;12.524;2023-02-03T00:59:42;3.40;;;1.20;;
21862;SDS011;11096;51.338;12.524;2023-02-03T01:02:07;1.42;;;1.30;;
21862;SDS011;11096;51.338;12.524;2023-02-03T01:04:32;7.57;;;1.33;;
21862;SDS011;11096;51.338;12.524;2023-02-03T01:06:58;3.83;;;1.17;;
21862;SDS011;11096;51.338;12.524;2023-02-03T01:09:24;4.03;;;1.27;;
21862;SDS011;11096;51.338;12.524;2023-02-03T01:11:49;1.67;;;1.10;;
21862;SDS011;11096;51.338;12.524;2023-02-03T01:14:14;1.85;;;1.30;;
21862;SDS011;11096;51.338;12.524;2023-02-03T01:16:39;4.95;;;1.27;;
21862;SDS011;11096;51.338;12.524;2023-02-03T01:19:05;1.90;;;1.15;;
21862;SDS011;11096;51.338;12.524;2023-02-03T01:21:30;3.47;;;1.42;;
21862;SDS011;11096;51.338;12.524;2023-02-03T01:23:57;2.13;;;1.52;;
21862;SDS011;11096;51.338;12.524;2023-02-03T01:26:22;4.50;;;1.42;;
21862;SDS011;11096;51.338;12.524;2023-02-03T01:28:51;9.07;;;1.63;;
21862;SDS011;11096;51.338;12.524;2023-02-03T01:31:18;4.57;;;1.60;;
21862;SDS011;11096;51.338;12.524;2023-02-03T01:33:44;4.07;;;2.10;;
21862;SDS011;11096;51.338;12.524;2023-02-03T01:36:16;3.45;;;1.98;;
21862;SDS011;11096;51.338;12.524;2023-02-03T01:38:41;4.55;;;2.20;;
21862;SDS011;11096;51.338;12.524;2023-02-03T01:41:08;3.15;;;2.08;;
21862;SDS011;11096;51.338;12.524;2023-02-03T01:43:35;3.75;;;2.42;;
21862;SDS011;11096;51.338;12.524;2023-02-03T01:46:06;3.70;;;2.33;;
21862;SDS011;11096;51.338;12.524;2023-02-03T01:48:38;5.68;;;2.67;;
21862;SDS011;11096;51.338;12.524;2023-02-03T01:51:03;6.43;;;2.95;;
21862;SDS011;11096;51.338;12.524;2023-02-03T01:53:29;7.63;;;3.22;;
21862;SDS011;11096;51.338;12.524;2023-02-03T01:55:54;7.65;;;3.40;;
21862;SDS011;11096;51.338;12.524;2023-02-03T01:58:22;8.98;;;3.22;;
21862;SDS011;11096;51.338;12.524;2023-02-03T02:00:49;7.72;;;3.75;;
21862;SDS011;11096;51.338;12.524;2023-02-03T02:03:17;7.95;;;3.88;;
21862;SDS011;11096;51.338;12.524;2023-02-03T02:05:52;9.75;;;4.28;;
21862;SDS011;11096;51.338;12.524;2023-02-03T02:08:18;7.72;;;4.00;;
21862;SDS011;11096;51.338;12.524;2023-02-03T02:10:46;9.73;;;4.43;;
21862;SDS011;11096;51.338;12.524;2023-02-03T02:13:12;10.38;;;4.40;;
21862;SDS011;11096;51.338;12.524;2023-02-03T02:18:33;10.02;;;4.60;;
21862;SDS011;11096;51.338;12.524;2023-02-03T02:24:06;11.10;;;4.82;;
21862;SDS011;11096;51.338;12.524;2023-02-03T02:29:18;11.63;;;5.03;;
21862;SDS011;11096;51.338;12.524;2023-02-03T02:34:14;10.43;;;5.20;;
21862;SDS011;11096;51.338;12.524;2023-02-03T02:36:45;10.75;;;4.55;;
21862;SDS011;11096;51.338;12.524;2023-02-03T02:40:02;12.25;;;4.97;;
21862;SDS011;11096;51.338;12.524;2023-02-03T02:42:00;14.95;;;5.00;;
21862;SDS011;11096;51.338;12.524;2023-02-03T02:44:29;15.18;;;5.63;;
21862;SDS011;11096;51.338;12.524;2023-02-03T02:47:00;15.88;;;5.95;;
21862;SDS011;11096;51.338;12.524;2023-02-03T02:49:31;14.35;;;5.85;;
21862;SDS011;11096;51.338;12.524;2023-02-03T02:51:57;18.33;;;6.72;;
21862;SDS011;11096;51.338;12.524;2023-02-03T02:54:24;15.85;;;5.93;;
21862;SDS011;11096;51.338;12.524;2023-02-03T02:56:51;18.83;;;6.90;;
21862;SDS011;11096;51.338;12.524;2023-02-03T02:59:18;17.95;;;7.00;;
21862;SDS011;11096;51.338;12.524;2023-02-03T03:01:44;19.05;;;6.72;;
21862;SDS011;11096;51.338;12.524;2023-02-03T03:04:09;24.00;;;7.97;;
21862;SDS011;11096;51.338;12.524;2023-02-03T03:06:46;20.13;;;7.35;;
21862;SDS011;11096;51.338;12.524;2023-02-03T03:09:15;23.58;;;7.43;;
21862;SDS011;11096;51.338;12.524;2023-02-03T03:11:44;21.15;;;7.82;;
21862;SDS011;11096;51.338;12.524;2023-02-03T03:14:12;26.20;;;10.00;;
21862;SDS011;11096;51.338;12.524;2023-02-03T03:16:40;22.58;;;8.13;;
21862;SDS011;11096;51.338;12.524;2023-02-03T03:19:12;24.55;;;8.32;;
21862;SDS011;11096;51.338;12.524;2023-02-03T03:21:43;28.98;;;9.77;;
21862;SDS011;11096;51.338;12.524;2023-02-03T03:24:11;22.25;;;9.35;;
21862;SDS011;11096;51.338;12.524;2023-02-03T03:26:41;24.08;;;9.07;;
21862;SDS011;11096;51.338;12.524;2023-02-03T03:29:10;21.10;;;8.50;;
21862;SDS011;11096;51.338;12.524;2023-02-03T03:31:37;26.58;;;8.65;;
21862;SDS011;11096;51.338;12.524;2023-02-03T03:34:03;23.33;;;7.93;;
21862;SDS011;11096;51.338;12.524;2023-02-03T03:36:30;25.35;;;9.20;;
21862;SDS011;11096;51.338;12.524;2023-02-03T03:39:01;23.45;;;8.63;;
21862;SDS011;11096;51.338;12.524;2023-02-03T03:41:29;26.60;;;9.63;;
21862;SDS011;11096;51.338;12.524;2023-02-03T03:43:58;26.75;;;9.40;;
21862;SDS011;11096;51.338;12.524;2023-02-03T03:46:26;28.08;;;9.90;;
21862;SDS011;11096;51.338;12.524;2023-02-03T03:48:59;27.48;;;9.82;;
21862;SDS011;11096;51.338;12.524;2023-02-03T03:51:27;30.20;;;10.07;;
21862;SDS011;11096;51.338;12.524;2023-02-03T03:53:54;30.90;;;9.80;;
21862;SDS011;11096;51.338;12.524;2023-02-03T03:56:27;29.33;;;10.25;;
21862;SDS011;11096;51.338;12.524;2023-02-03T03:58:53;30.23;;;10.45;;
21862;SDS011;11096;51.338;12.524;2023-02-03T04:01:19;31.05;;;10.48;;
21862;SDS011;11096;51.338;12.524;2023-02-03T04:03:48;30.13;;;9.63;;
21862;SDS011;11096;51.338;12.524;2023-02-03T04:06:14;28.85;;;9.70;;
21862;SDS011;11096;51.338;12.524;2023-02-03T04:08:39;29.92;;;9.93;;
21862;SDS011;11096;51.338;12.524;2023-02-03T04:11:05;30.77;;;9.95;;
21862;SDS011;11096;51.338;12.524;2023-02-03T04:13:30;26.88;;;9.85;;
21862;SDS011;11096;51.338;12.524;2023-02-03T04:15:56;24.92;;;8.98;;
21862;SDS011;11096;51.338;12.524;2023-02-03T04:18:22;24.98;;;9.68;;
21862;SDS011;11096;51.338;12.524;2023-02-03T04:20:47;27.92;;;9.43;;
21862;SDS011;11096;51.338;12.524;2023-02-03T04:23:13;30.35;;;10.73;;
21862;SDS011;11096;51.338;12.524;2023-02-03T04:25:38;29.02;;;10.68;;
21862;SDS011;11096;51.338;12.524;2023-02-03T04:28:03;31.23;;;10.75;;
21862;SDS011;11096;51.338;12.524;2023-02-03T04:30:30;26.15;;;10.52;;
21862;SDS011;11096;51.338;12.524;2023-02-03T04:32:55;37.10;;;10.88;;
21862;SDS011;11096;51.338;12.524;2023-02-03T04:35:20;35.95;;;11.88;;
21862;SDS011;11096;51.338;12.524;2023-02-03T04:37:46;33.50;;;11.82;;
21862;SDS011;11096;51.338;12.524;2023-02-03T04:40:11;31.08;;;11.43;;
21862;SDS011;11096;51.338;12.524;2023-02-03T04:42:37;31.13;;;10.65;;
21862;SDS011;11096;51.338;12.524;2023-02-03T04:45:06;28.40;;;10.95;;
21862;SDS011;11096;51.338;12.524;2023-02-03T04:47:32;29.90;;;10.73;;
21862;SDS011;11096;51.338;12.524;2023-02-03T04:49:57;30.92;;;10.50;;
21862;SDS011;11096;51.338;12.524;2023-02-03T04:52:22;30.83;;;11.18;;
21862;SDS011;11096;51.338;12.524;2023-02-03T04:54:47;30.73;;;10.65;;
21862;SDS011;11096;51.338;12.524;2023-02-03T04:57:13;31.88;;;10.48;;
21862;SDS011;11096;51.338;12.524;2023-02-03T04:59:38;32.33;;;11.73;;
21862;SDS011;11096;51.338;12.524;2023-02-03T05:02:03;32.15;;;10.70;;
21862;SDS011;11096;51.338;12.524;2023-02-03T05:04:29;31.23;;;10.95;;
21862;SDS011;11096;51.338;12.524;2023-02-03T05:06:54;30.63;;;11.40;;
21862;SDS011;11096;51.338;12.524;2023-02-03T05:09:20;29.33;;;9.82;;
21862;SDS011;11096;51.338;12.524;2023-02-03T05:11:46;28.73;;;10.82;;
21862;SDS011;11096;51.338;12.524;2023-02-03T05:14:11;30.13;;;10.98;;
21862;SDS011;11096;51.338;12.524;2023-02-03T05:16:36;29.38;;;11.30;;
21862;SDS011;11096;51.338;12.524;2023-02-03T05:19:01;33.70;;;12.20;;
21862;SDS011;11096;51.338;12.524;2023-02-03T05:21:27;31.95;;;11.10;;
21862;SDS011;11096;51.338;12.524;2023-02-03T05:23:52;26.52;;;11.35;;
21862;SDS011;11096;51.338;12.524;2023-02-03T05:26:17;36.65;;;11.43;;
21862;SDS011;11096;51.338;12.524;2023-02-03T05:28:42;29.98;;;11.50;;
21862;SDS011;11096;51.338;12.524;2023-02-03T05:31:08;29.48;;;11.05;;
21862;SDS011;11096;51.338;12.524;2023-02-03T05:33:33;30.55;;;10.73;;
21862;SDS011;11096;51.338;12.524;2023-02-03T05:35:58;25.58;;;10.70;;
21862;SDS011;11096;51.338;12.524;2023-02-03T05:38:24;28.58;;;10.93;;
21862;SDS011;11096;51.338;12.524;2023-02-03T05:40:49;26.52;;;10.13;;
21862;SDS011;11096;51.338;12.524;2023-02-03T05:43:34;21.70;;;9.35;;
21862;SDS011;11096;51.338;12.524;2023-02-03T05:46:00;25.42;;;10.60;;
21862;SDS011;11096;51.338;12.524;2023-02-03T05:48:25;22.10;;;9.05;;
21862;SDS011;11096;51.338;12.524;2023-02-03T05:50:51;27.23;;;9.73;;
21862;SDS011;11096;51.338;12.524;2023-02-03T05:53:16;20.92;;;8.88;;
21862;SDS011;11096;51.338;12.524;2023-02-03T05:55:41;28.13;;;8.68;;
21862;SDS011;11096;51.338;12.524;2023-02-03T05:58:06;21.33;;;8.50;;
21862;SDS011;11096;51.338;12.524;2023-02-03T06:00:32;25.42;;;9.38;;
21862;SDS011;11096;51.338;12.524;2023-02-03T06:02:57;18.67;;;8.43;;
21862;SDS011;11096;51.338;12.524;2023-02-03T06:05:23;17.33;;;8.30;;
21862;SDS011;11096;51.338;12.524;2023-02-03T06:07:49;17.08;;;7.65;;
21862;SDS011;11096;51.338;12.524;2023-02-03T06:10:15;17.95;;;8.32;;
21862;SDS011;11096;51.338;12.524;2023-02-03T06:12:40;22.48;;;8.77;;
21862;SDS011;11096;51.338;12.524;2023-02-03T06:15:06;19.98;;;8.30;;
21862;SDS011;11096;51.338;12.524;2023-02-03T06:17:31;21.25;;;8.82;;
21862;SDS011;11096;51.338;12.524;2023-02-03T06:19:57;19.73;;;7.38;;
21862;SDS011;11096;51.338;12.524;2023-02-03T06:22:22;19.33;;;8.77;;
21862;SDS011;11096;51.338;12.524;2023-02-03T06:24:47;22.52;;;8.82;;
21862;SDS011;11096;51.338;12.524;2023-02-03T06:27:16;15.40;;;7.20;;
21862;SDS011;11096;51.338;12.524;2023-02-03T06:29:41;16.48;;;8.23;;
21862;SDS011;11096;51.338;12.524;2023-02-03T06:32:06;22.25;;;8.73;;
21862;SDS011;11096;51.338;12.524;2023-02-03T06:34:32;15.38;;;8.25;;
21862;SDS011;11096;51.338;12.524;2023-02-03T06:36:57;20.60;;;9.20;;
21862;SDS011;11096;51.338;12.524;2023-02-03T06:39:22;18.88;;;8.40;;
21862;SDS011;11096;51.338;12.524;2023-02-03T06:41:48;15.48;;;8.10;;
21862;SDS011;11096;51.338;12.524;2023-02-03T06:44:15;16.27;;;7.68;;
21862;SDS011;11096;51.338;12.524;2023-02-03T06:46:40;15.98;;;7.55;;
21862;SDS011;11096;51.338;12.524;2023-02-03T06:49:05;17.13;;;7.57;;
21862;SDS011;11096;51.338;12.524;2023-02-03T06:51:31;17.83;;;7.60;;
21862;SDS011;11096;51.338;12.524;2023-02-03T06:53:56;16.75;;;7.88;;
21862;SDS011;11096;51.338;12.524;2023-02-03T06:56:22;17.30;;;7.38;;
21862;SDS011;11096;51.338;12.524;2023-02-03T06:58:48;12.32;;;7.30;;
21862;SDS011;11096;51.338;12.524;2023-02-03T07:01:13;16.23;;;6.80;;
21862;SDS011;11096;51.338;12.524;2023-02-03T07:03:38;16.77;;;7.95;;
21862;SDS011;11096;51.338;12.524;2023-02-03T07:06:04;17.65;;;7.30;;
21862;SDS011;11096;51.338;12.524;2023-02-03T07:08:29;18.60;;;7.75;;
21862;SDS011;11096;51.338;12.524;2023-02-03T07:10:54;15.30;;;6.68;;
21862;SDS011;11096;51.338;12.524;2023-02-03T07:13:20;12.38;;;6.55;;
21862;SDS011;11096;51.338;12.524;2023-02-03T07:15:45;12.00;;;6.57;;
21862;SDS011;11096;51.338;12.524;2023-02-03T07:18:10;12.98;;;6.43;;
21862;SDS011;11096;51.338;12.524;2023-02-03T07:20:35;11.13;;;6.18;;
21862;SDS011;11096;51.338;12.524;2023-02-03T07:23:01;13.23;;;6.72;;
21862;SDS011;11096;51.338;12.524;2023-02-03T07:25:26;14.32;;;6.78;;
21862;SDS011;11096;51.338;12.524;2023-02-03T07:27:51;11.90;;;6.30;;
21862;SDS011;11096;51.338;12.524;2023-02-03T07:30:17;10.73;;;5.85;;
21862;SDS011;11096;51.338;12.524;2023-02-03T07:32:47;13.27;;;6.32;;
21862;SDS011;11096;51.338;12.524;2023-02-03T07:35:13;15.15;;;6.95;;
21862;SDS011;11096;51.338;12.524;2023-02-03T07:37:38;12.52;;;6.70;;
21862;SDS011;11096;51.338;12.524;2023-02-03T07:40:04;14.32;;;7.20;;
21862;SDS011;11096;51.338;12.524;2023-02-03T07:42:29;12.07;;;6.57;;
21862;SDS011;11096;51.338;12.524;2023-02-03T07:44:54;12.95;;;6.20;;
21862;SDS011;11096;51.338;12.524;2023-02-03T07:47:19;13.80;;;6.18;;
21862;SDS011;11096;51.338;12.524;2023-02-03T07:49:45;14.35;;;6.55;;
21862;SDS011;11096;51.338;12.524;2023-02-03T07:52:10;14.93;;;6.93;;
21862;SDS011;11096;51.338;12.524;2023-02-03T07:54:35;14.43;;;6.72;;
21862;SDS011;11096;51.338;12.524;2023-02-03T07:57:00;18.75;;;7.50;;
21862;SDS011;11096;51.338;12.524;2023-02-03T07:59:26;17.17;;;7.38;;
21862;SDS011;11096;51.338;12.524;2023-02-03T08:01:51;14.57;;;7.70;;
21862;SDS011;11096;51.338;12.524;2023-02-03T08:04:20;15.57;;;7.07;;
21862;SDS011;11096;51.338;12.524;2023-02-03T08:06:45;15.23;;;7.20;;
21862;SDS011;11096;51.338;12.524;2023-02-03T08:09:10;14.35;;;7.05;;
21862;SDS011;11096;51.338;12.524;2023-02-03T08:11:35;17.80;;;7.22;;
21862;SDS011;11096;51.338;12.524;2023-02-03T08:14:01;15.85;;;6.95;;
21862;SDS011;11096;51.338;12.524;2023-02-03T08:16:26;12.98;;;7.25;;
21862;SDS011;11096;51.338;12.524;2023-02-03T08:18:51;17.52;;;7.68;;
21862;SDS011;11096;51.338;12.524;2023-02-03T08:21:17;14.73;;;7.05;;
21862;SDS011;11096;51.338;12.524;2023-02-03T08:23:42;12.45;;;7.18;;
21862;SDS011;11096;51.338;12.524;2023-02-03T08:26:07;13.10;;;6.40;;
21862;SDS011;11096;51.338;12.524;2023-02-03T08:28:32;14.88;;;6.72;;
21862;SDS011;11096;51.338;12.524;2023-02-03T08:30:58;12.95;;;7.25;;
21862;SDS011;11096;51.338;12.524;2023-02-03T08:33:23;18.13;;;6.10;;
21862;SDS011;11096;51.338;12.524;2023-02-03T08:35:48;13.38;;;6.15;;
21862;SDS011;11096;51.338;12.524;2023-02-03T08:38:14;14.52;;;6.65;;
21862;SDS011;11096;51.338;12.524;2023-02-03T08:40:39;13.95;;;6.45;;
21862;SDS011;11096;51.338;12.524;2023-02-03T08:43:05;12.30;;;5.97;;
21862;SDS011;11096;51.338;12.524;2023-02-03T08:45:30;10.45;;;5.95;;
21862;SDS011;11096;51.338;12.524;2023-02-03T08:47:55;10.55;;;5.72;;
21862;SDS011;11096;51.338;12.524;2023-02-03T08:50:21;12.77;;;5.45;;
21862;SDS011;11096;51.338;12.524;2023-02-03T08:52:46;13.48;;;5.70;;
21862;SDS011;11096;51.338;12.524;2023-02-03T08:55:11;12.00;;;5.65;;
21862;SDS011;11096;51.338;12.524;2023-02-03T08:57:36;8.13;;;5.00;;
21862;SDS011;11096;51.338;12.524;2023-02-03T09:00:04;10.65;;;5.68;;
21862;SDS011;11096;51.338;12.524;2023-02-03T09:02:29;12.50;;;5.70;;
21862;SDS011;11096;51.338;12.524;2023-02-03T09:04:54;9.05;;;5.35;;
21862;SDS011;11096;51.338;12.524;2023-02-03T09:07:20;10.35;;;5.80;;
21862;SDS011;11096;51.338;12.524;2023-02-03T09:09:45;12.93;;;5.10;;
21862;SDS011;11096;51.338;12.524;2023-02-03T09:12:11;8.70;;;5.45;;
21862;SDS011;11096;51.338;12.524;2023-02-03T09:14:37;12.25;;;5.82;;
21862;SDS011;11096;51.338;12.524;2023-02-03T09:17:02;7.80;;;5.25;;
21862;SDS011;11096;51.338;12.524;2023-02-03T09:19:28;7.22;;;4.82;;
21862;SDS011;11096;51.338;12.524;2023-02-03T09:21:54;10.20;;;5.28;;
21862;SDS011;11096;51.338;12.524;2023-02-03T09:24:21;11.38;;;4.97;;
21862;SDS011;11096;51.338;12.524;2023-02-03T09:26:46;9.05;;;5.05;;
21862;SDS011;11096;51.338;12.524;2023-02-03T09:29:11;9.43;;;4.90;;
21862;SDS011;11096;51.338;12.524;2023-02-03T09:31:37;11.48;;;4.75;;
21862;SDS011;11096;51.338;12.524;2023-02-03T09:34:02;10.57;;;5.38;;
21862;SDS011;11096;51.338;12.524;2023-02-03T09:36:27;9.85;;;5.00;;
21862;SDS011;11096;51.338;12.524;2023-02-03T09:38:52;7.25;;;4.13;;
21862;SDS011;11096;51.338;12.524;2023-02-03T09:44:03;6.65;;;4.00;;
21862;SDS011;11096;51.338;12.524;2023-02-03T09:46:36;5.22;;;3.40;;
21862;SDS011;11096;51.338;12.524;2023-02-03T09:51:43;5.72;;;3.85;;
21862;SDS011;11096;51.338;12.524;2023-02-03T09:54:20;5.35;;;3.60;;
21862;SDS011;11096;51.338;12.524;2023-02-03T09:56:47;7.47;;;3.95;;
21862;SDS011;11096;51.338;12.524;2023-02-03T09:59:17;6.40;;;3.40;;
21862;SDS011;11096;51.338;12.524;2023-02-03T10:01:57;7.00;;;3.15;;
21862;SDS011;11096;51.338;12.524;2023-02-03T10:04:31;6.15;;;3.40;;
21862;SDS011;11096;51.338;12.524;2023-02-03T10:17:45;3.60;;;2.40;;
21862;SDS011;11096;51.338;12.524;2023-02-03T10:20:16;5.72;;;3.03;;
21862;SDS011;11096;51.338;12.524;2023-02-03T10:22:53;3.88;;;2.75;;
21862;SDS011;11096;51.338;12.524;2023-02-03T10:25:31;6.28;;;2.80;;
21862;SDS011;11096;51.338;12.524;2023-02-03T10:27:59;6.13;;;2.50;;
21862;SDS011;11096;51.338;12.524;2023-02-03T10:30:27;7.25;;;2.65;;
21862;SDS011;11096;51.338;12.524;2023-02-03T10:33:04;6.03;;;2.67;;
21862;SDS011;11096;51.338;12.524;2023-02-03T10:35:35;4.55;;;2.20;;
21862;SDS011;11096;51.338;12.524;2023-02-03T10:38:03;3.92;;;2.25;;
21862;SDS011;11096;51.338;12.524;2023-02-03T10:40:30;4.15;;;2.50;;
21862;SDS011;11096;51.338;12.524;2023-02-03T10:42:55;2.95;;;2.15;;
21862;SDS011;11096;51.338;12.524;2023-02-03T10:45:39;7.57;;;2.80;;
21862;SDS011;11096;51.338;12.524;2023-02-03T10:48:05;3.75;;;2.20;;
21862;SDS011;11096;51.338;12.524;2023-02-03T10:50:33;3.22;;;2.05;;
21862;SDS011;11096;51.338;12.524;2023-02-03T10:55:44;6.07;;;2.38;;
21862;SDS011;11096;51.338;12.524;2023-02-03T10:58:18;5.15;;;2.63;;
21862;SDS011;11096;51.338;12.524;2023-02-03T11:00:46;2.55;;;2.15;;
21862;SDS011;11096;51.338;12.524;2023-02-03T11:03:22;4.32;;;2.38;;
21862;SDS011;11096;51.338;12.524;2023-02-03T11:06:34;4.07;;;2.22;;
21862;SDS011;11096;51.338;12.524;2023-02-03T11:08:35;4.88;;;2.45;;
21862;SDS011;11096;51.338;12.524;2023-02-03T11:11:01;5.68;;;2.45;;
21862;SDS011;11096;51.338;12.524;2023-02-03T11:13:27;2.33;;;1.92;;
21862;SDS011;11096;51.338;12.524;2023-02-03T11:20:56;5.10;;;2.50;;
21862;SDS011;11096;51.338;12.524;2023-02-03T11:23:22;5.65;;;2.63;;
21862;SDS011;11096;51.338;12.524;2023-02-03T11:25:48;2.75;;;2.38;;
21862;SDS011;11096;51.338;12.524;2023-02-03T11:28:13;3.00;;;2.13;;
21862;SDS011;11096;51.338;12.524;2023-02-03T11:30:38;2.20;;;1.80;;
21862;SDS011;11096;51.338;12.524;2023-02-03T11:33:13;2.65;;;2.20;;
21862;SDS011;11096;51.338;12.524;2023-02-03T11:35:39;4.55;;;2.45;;
21862;SDS011;11096;51.338;12.524;2023-02-03T11:41:16;3.70;;;2.15;;
21862;SDS011;11096;51.338;12.524;2023-02-03T11:43:42;5.30;;;2.67;;
21862;SDS011;11096;51.338;12.524;2023-02-03T11:46:07;4.60;;;2.63;;
21862;SDS011;11096;51.338;12.524;2023-02-03T11:51:10;2.90;;;2.40;;
21862;SDS011;11096;51.338;12.524;2023-02-03T11:53:46;3.92;;;2.58;;
21862;SDS011;11096;51.338;12.524;2023-02-03T11:56:24;2.67;;;2.35;;
21862;SDS011;11096;51.338;12.524;2023-02-03T11:59:08;4.43;;;2.70;;
21862;SDS011;11096;51.338;12.524;2023-02-03T12:09:16;2.92;;;2.35;;
21862;SDS011;11096;51.338;12.524;2023-02-03T12:19:29;4.40;;;2.85;;
21862;SDS011;11096;51.338;12.524;2023-02-03T12:24:33;5.63;;;2.80;;
21862;SDS011;11096;51.338;12.524;2023-02-03T12:29:47;8.82;;;4.03;;
21862;SDS011;11096;51.338;12.524;2023-02-03T12:37:22;7.35;;;2.20;;
21862;SDS011;11096;51.338;12.524;2023-02-03T12:39:52;5.82;;;1.80;;
21862;SDS011;11096;51.338;12.524;2023-02-03T12:42:28;4.10;;;2.28;;
21862;SDS011;11096;51.338;12.524;2023-02-03T12:44:57;4.82;;;2.22;;
21862;SDS011;11096;51.338;12.524;2023-02-03T12:49:58;4.97;;;1.58;;
21862;SDS011;11096;51.338;12.524;2023-02-03T12:57:39;3.15;;;1.65;;
21862;SDS011;11096;51.338;12.524;2023-02-03T13:00:23;3.88;;;1.50;;
21862;SDS011;11096;51.338;12.524;2023-02-03T13:05:21;6.03;;;1.27;;
21862;SDS011;11096;51.338;12.524;2023-02-03T13:07:51;6.28;;;1.20;;
21862;SDS011;11096;51.338;12.524;2023-02-03T13:10:21;3.25;;;1.35;;
21862;SDS011;11096;51.338;12.524;2023-02-03T13:12:51;10.60;;;1.55;;
21862;SDS011;11096;51.338;12.524;2023-02-03T13:20:25;5.47;;;1.33;;
21862;SDS011;11096;51.338;12.524;2023-02-03T13:22:53;6.68;;;1.45;;
21862;SDS011;11096;51.338;12.524;2023-02-03T13:32:53;7.63;;;1.90;;
21862;SDS011;11096;51.338;12.524;2023-02-03T13:40:52;7.28;;;1.75;;
21862;SDS011;11096;51.338;12.524;2023-02-03T13:43:23;10.35;;;2.30;;
21862;SDS011;11096;51.338;12.524;2023-02-03T13:45:50;18.25;;;2.35;;
21862;SDS011;11096;51.338;12.524;2023-02-03T13:48:20;10.38;;;2.08;;
21862;SDS011;11096;51.338;12.524;2023-02-03T13:50:47;13.02;;;2.17;;
21862;SDS011;11096;51.338;12.524;2023-02-03T13:53:15;10.80;;;2.00;;
21862;SDS011;11096;51.338;12.524;2023-02-03T13:56:02;13.15;;;2.20;;
21862;SDS011;11096;51.338;12.524;2023-02-03T13:58:30;10.70;;;1.77;;
21862;SDS011;11096;51.338;12.524;2023-02-03T14:05:50;8.80;;;2.05;;
21862;SDS011;11096;51.338;12.524;2023-02-03T14:09:16;20.63;;;2.72;;
21862;SDS011;11096;51.338;12.524;2023-02-03T14:13:47;7.30;;;1.60;;
21862;SDS011;11096;51.338;12.524;2023-02-03T14:16:20;8.80;;;1.67;;
21862;SDS011;11096;51.338;12.524;2023-02-03T14:18:46;6.85;;;1.52;;
21862;SDS011;11096;51.338;12.524;2023-02-03T14:21:15;3.78;;;0.90;;
21862;SDS011;11096;51.338;12.524;2023-02-03T14:23:42;9.77;;;1.63;;
21862;SDS011;11096;51.338;12.524;2023-02-03T14:26:22;11.18;;;2.13;;
21862;SDS011;11096;51.338;12.524;2023-02-03T14:28:48;6.85;;;1.83;;
21862;SDS011;11096;51.338;12.524;2023-02-03T14:31:21;5.80;;;1.40;;
21862;SDS011;11096;51.338;12.524;2023-02-03T14:38:52;6.10;;;1.23;;
21862;SDS011;11096;51.338;12.524;2023-02-03T14:41:20;8.10;;;1.83;;
21862;SDS011;11096;51.338;12.524;2023-02-03T14:43:51;9.50;;;1.73;;
21862;SDS011;11096;51.338;12.524;2023-02-03T14:56:48;7.68;;;2.05;;
21862;SDS011;11096;51.338;12.524;2023-02-03T15:04:34;11.68;;;2.17;;
21862;SDS011;11096;51.338;12.524;2023-02-03T15:06:59;9.98;;;2.28;;
21862;SDS011;11096;51.338;12.524;2023-02-03T15:09:30;7.47;;;2.13;;
21862;SDS011;11096;51.338;12.524;2023-02-03T15:11:56;11.63;;;2.35;;
21862;SDS011;11096;51.338;12.524;2023-02-03T15:14:25;11.27;;;2.15;;
21862;SDS011;11096;51.338;12.524;2023-02-03T15:19:21;13.13;;;2.45;;
21862;SDS011;11096;51.338;12.524;2023-02-03T15:21:47;10.85;;;3.65;;
21862;SDS011;11096;51.338;12.524;2023-02-03T15:24:13;12.82;;;2.80;;
21862;SDS011;11096;51.338;12.524;2023-02-03T15:26:43;12.90;;;2.40;;
21862;SDS011;11096;51.338;12.524;2023-02-03T15:29:15;15.27;;;3.00;;
21862;SDS011;11096;51.338;12.524;2023-02-03T15:31:42;12.07;;;2.83;;
21862;SDS011;11096;51.338;12.524;2023-02-03T15:34:16;13.60;;;3.33;;
21862;SDS011;11096;51.338;12.524;2023-02-03T15:36:45;13.00;;;2.60;;
21862;SDS011;11096;51.338;12.524;2023-02-03T15:39:17;9.15;;;2.22;;
21862;SDS011;11096;51.338;12.524;2023-02-03T15:41:44;13.63;;;2.65;;
21862;SDS011;11096;51.338;12.524;2023-02-03T15:44:13;11.25;;;2.65;;
21862;SDS011;11096;51.338;12.524;2023-02-03T15:46:42;12.82;;;2.80;;
21862;SDS011;11096;51.338;12.524;2023-02-03T15:49:13;15.20;;;3.53;;
21862;SDS011;11096;51.338;12.524;2023-02-03T15:51:44;14.65;;;2.47;;
21862;SDS011;11096;51.338;12.524;2023-02-03T15:56:42;9.77;;;2.13;;
21862;SDS011;11096;51.338;12.524;2023-02-03T15:59:42;8.68;;;2.83;;
21862;SDS011;11096;51.338;12.524;2023-02-03T16:02:00;13.23;;;3.00;;
21862;SDS011;11096;51.338;12.524;2023-02-03T16:04:26;10.15;;;1.92;;
21862;SDS011;11096;51.338;12.524;2023-02-03T16:06:51;8.55;;;2.15;;
21862;SDS011;11096;51.338;12.524;2023-02-03T16:09:28;6.15;;;1.70;;
21862;SDS011;11096;51.338;12.524;2023-02-03T16:14:38;9.25;;;2.50;;
21862;SDS011;11096;51.338;12.524;2023-02-03T16:17:03;9.93;;;2.30;;
21862;SDS011;11096;51.338;12.524;2023-02-03T16:19:29;14.05;;;2.38;;
21862;SDS011;11096;51.338;12.524;2023-02-03T16:21:57;10.52;;;2.15;;
21862;SDS011;11096;51.338;12.524;2023-02-03T16:27:18;11.27;;;2.35;;
21862;SDS011;11096;51.338;12.524;2023-02-03T16:29:43;7.55;;;2.28;;
21862;SDS011;11096;51.338;12.524;2023-02-03T16:32:27;9.55;;;2.22;;
21862;SDS011;11096;51.338;12.524;2023-02-03T16:35:11;24.08;;;5.18;;
21862;SDS011;11096;51.338;12.524;2023-02-03T16:37:55;9.80;;;1.98;;
21862;SDS011;11096;51.338;12.524;2023-02-03T16:40:39;6.82;;;2.25;;
21862;SDS011;11096;51.338;12.524;2023-02-03T16:43:22;4.70;;;1.75;;